Date,TemperatureHighF,TemperatureAvgF,TemperatureLowF,DewpointHighF,DewpointAvgF,DewpointLowF,HumidityHigh,HumidityAvg,HumidityLow,PressureMaxIn,PressureMinIn,WindSpeedMaxMPH,WindSpeedAvgMPH,GustSpeedMaxMPH,PrecipitationSumIn
2013-1-1,46.6,44.0,41.2,45.5,40.7,30.7,96,89,60,30.06,29.93,0,0,57,0.84
2013-1-2,43.3,38.4,36.9,42.3,33.7,31.4,96,83,77,30.15,29.99,1,0,4,0.18
2013-1-3,48.2,38.0,34.7,31.9,28.0,22.4,83,68,46,30.33,30.13,1,0,3,0.00
2013-1-4,50.7,37.6,30.0,27.3,21.5,18.0,66,53,32,30.40,30.31,1,0,6,0.00
2013-1-5,48.4,39.0,30.7,33.7,24.9,20.3,73,58,40,30.36,30.21,4,0,5,0.00
2013-1-6,51.8,42.9,38.5,39.1,34.8,27.6,93,74,54,30.27,30.12,2,0,6,0.04
2013-1-7,53.4,40.3,30.6,31.9,26.8,22.3,71,59,40,30.36,30.26,4,0,8,0.00
2013-1-8,57.4,44.3,34.2,40.6,33.8,27.0,83,67,47,30.36,30.24,0,0,2,0.00
2013-1-9,53.8,50.8,49.1,51.2,46.3,40.5,96,85,71,30.39,30.27,0,0,29,0.10
2013-1-10,61.0,52.3,49.1,54.9,50.0,48.0,96,92,78,30.38,30.07,7,0,8,0.04
2013-1-11,63.5,61.4,59.4,61.6,58.9,54.6,96,92,78,30.11,30.03,57,2,57,0.37
2013-1-12,65.3,60.3,56.7,59.5,57.1,55.3,96,89,78,30.08,29.96,5,0,7,0.26
2013-1-13,67.3,62.6,58.3,62.0,58.6,55.8,96,87,76,30.02,29.92,4,0,9,1.14
2013-1-14,55.0,43.4,37.6,51.2,41.3,35.7,96,92,82,30.22,30.03,3,0,9,2.24
2013-1-15,41.2,39.6,37.9,40.1,38.5,36.9,96,96,96,30.13,29.94,3,0,4,1.98
2013-1-16,45.3,42.2,39.6,44.2,41.0,38.0,96,96,94,30.03,29.90,0,0,29,0.24
2013-1-17,41.0,39.3,37.4,40.0,34.6,27.4,96,83,66,30.28,29.74,7,1,20,0.22
2013-1-18,52.9,40.3,33.3,36.7,29.8,26.2,83,67,42,30.50,30.31,3,0,4,0.06
2013-1-19,55.8,42.7,33.4,35.9,30.3,26.9,91,64,36,30.39,30.17,8,1,9,0.00
2013-1-20,62.1,49.2,40.1,37.3,31.3,25.8,67,51,36,30.18,30.08,0,0,5,0.00
2013-1-21,52.5,41.4,33.3,31.9,17.0,-2.0,78,42,19,30.20,30.07,2,0,8,0.00
2013-1-22,43.5,32.5,23.7,4.6,-2.4,-12.5,35,22,19,30.34,30.19,3,0,6,0.00
2013-1-23,54.1,41.4,32.4,26.1,11.2,-5.3,54,30,19,30.33,30.11,7,0,8,0.00
2013-1-24,49.5,40.1,31.3,38.1,13.0,-6.2,66,36,19,30.33,30.13,6,1,12,0.00
2013-1-25,37.6,33.3,31.6,34.1,16.6,-5.9,87,57,19,30.33,30.08,10,1,11,0.06
2013-1-26,52.3,41.3,34.9,35.9,33.3,29.9,89,74,50,30.28,30.15,0,0,2,0.04
2013-1-27,49.1,40.8,32.7,36.2,30.6,26.8,79,68,53,30.38,30.28,5,0,9,0.00
2013-1-28,59.9,49.6,43.7,46.0,36.8,28.4,75,61,52,30.33,30.19,10,1,12,0.00
2013-1-29,60.8,52.4,46.4,57.2,48.1,41.5,91,85,78,30.20,29.93,0,0,114,0.00
2013-1-30,70.2,62.3,43.7,69.0,59.0,35.3,96,89,72,29.81,29.53,14,2,15,1.49
2013-1-31,49.8,40.5,34.0,27.6,23.8,20.8,66,52,37,30.07,29.85,17,2,17,0.04
2013-2-1,43.5,33.4,22.5,29.0,7.0,-5.3,64,35,19,30.38,30.02,6,1,18,0.00
2013-2-2,36.9,30.5,24.3,31.6,18.5,9.2,82,61,44,30.33,30.06,8,0,8,0.02
2013-2-3,55.4,41.6,33.8,35.6,27.9,21.1,83,61,32,30.12,29.98,8,1,16,0.02
2013-2-4,48.6,38.3,30.6,27.2,23.8,20.3,72,57,40,30.11,29.95,7,1,10,0.00
2013-2-5,64.8,49.8,41.0,41.7,35.0,26.3,74,58,33,30.00,29.91,4,0,8,0.02
2013-2-6,65.8,50.1,38.3,42.8,34.8,29.7,86,60,27,30.17,30.01,0,0,2,0.02
2013-2-7,52.0,48.4,45.5,39.6,34.5,30.1,70,59,51,30.10,29.92,2,0,3,0.00
2013-2-8,57.0,47.4,38.5,48.5,38.6,26.2,92,73,43,30.21,29.89,3,0,7,0.04
2013-2-9,57.4,43.9,32.5,29.5,25.8,22.5,67,51,29,30.30,30.18,6,0,8,0.02
2013-2-10,55.4,49.8,45.0,50.3,35.5,21.8,92,61,27,30.20,29.97,10,1,17,0.63
2013-2-11,54.9,51.9,45.1,53.7,45.5,33.5,96,80,60,30.11,29.98,8,0,8,0.16
2013-2-12,50.4,45.0,38.8,37.9,32.8,29.7,83,63,46,30.12,29.81,2,0,5,0.08
2013-2-13,47.3,42.2,38.8,45.5,37.7,31.9,96,84,72,29.97,29.68,7,0,12,0.16
2013-2-14,58.5,44.7,34.7,37.7,31.9,26.5,77,62,38,30.05,29.97,9,0,9,0.02
2013-2-15,59.2,45.7,38.3,39.2,32.2,25.2,76,60,42,30.06,29.97,4,0,8,0.00
2013-2-16,41.2,34.9,28.6,25.3,13.0,-2.4,57,43,19,30.14,30.00,3,0,12,0.00
2013-2-17,51.8,34.9,23.2,10.9,4.3,-3.9,48,29,19,30.25,30.14,0,0,6,0.00
2013-2-18,61.5,45.8,30.9,23.3,17.7,9.0,58,34,19,30.27,29.97,14,2,22,0.00
2013-2-19,54.5,45.0,37.0,43.4,25.3,0.9,92,53,19,30.17,29.92,9,1,15,0.49
2013-2-20,42.3,36.0,30.6,15.5,7.1,-3.5,48,31,19,30.22,30.13,0,0,6,0.02
2013-2-21,52.5,39.4,30.4,36.2,18.0,6.8,87,45,19,30.18,29.91,3,0,6,0.77
2013-2-22,47.3,43.9,39.7,42.3,40.5,36.2,96,88,78,30.05,29.97,8,1,9,1.00
2013-2-23,54.1,46.7,42.8,48.7,43.6,37.3,96,89,75,30.00,29.81,0,0,3,0.24
2013-2-24,59.9,45.5,34.2,36.8,29.5,24.1,78,56,31,30.04,29.90,5,0,5,0.04
2013-2-25,54.0,46.3,39.4,39.3,28.3,21.5,64,49,41,30.00,29.74,8,0,8,0.00
2013-2-26,50.7,43.8,38.7,43.6,38.4,32.1,96,82,64,29.74,29.50,13,2,21,0.80
2013-2-27,54.9,43.4,36.9,36.3,31.9,29.6,82,65,41,29.86,29.71,13,2,15,0.02
2013-2-28,40.6,38.1,36.5,26.6,24.1,21.2,63,57,53,29.99,29.82,4,0,8,0.00
2013-3-1,40.8,37.1,34.5,28.7,25.7,22.3,74,63,56,29.98,29.94,3,0,3,0.00
2013-3-2,39.2,35.1,32.4,27.6,23.9,20.0,75,64,56,30.04,29.93,3,0,5,0.00
2013-3-3,45.0,34.1,29.5,19.4,15.2,0.7,61,48,19,30.07,30.02,0,0,5,0.00
2013-3-4,54.9,41.1,29.3,24.9,21.3,15.9,68,48,26,30.15,29.94,3,0,5,0.00
2013-3-5,53.2,46.9,36.1,51.6,37.6,23.2,96,71,42,29.97,29.63,9,1,15,0.69
2013-3-6,44.8,35.1,32.2,27.8,21.8,18.0,64,58,49,30.21,29.89,7,1,12,0.26
2013-3-7,50.9,38.7,32.2,29.8,24.2,21.2,65,56,42,30.30,30.19,9,1,10,0.00
2013-3-8,59.0,42.3,30.0,27.9,21.7,14.1,68,48,19,30.33,30.22,3,0,10,0.00
2013-3-9,59.7,48.9,38.8,31.2,26.3,23.1,57,43,26,30.26,30.13,5,0,10,0.00
2013-3-10,70.5,59.3,51.3,34.0,27.3,20.8,42,31,19,30.12,29.94,15,2,22,0.00
2013-3-11,61.2,54.9,41.5,51.6,45.0,34.7,96,71,37,29.97,29.74,16,2,21,0.80
2013-3-12,60.3,45.6,36.3,35.7,30.3,26.4,80,57,30,30.08,29.89,5,0,7,0.12
2013-3-13,53.1,42.9,34.7,30.5,22.3,5.7,70,47,19,30.29,30.07,6,0,11,0.00
2013-3-14,56.3,39.3,27.7,30.8,14.1,5.7,61,38,19,30.36,30.21,6,0,8,0.00
2013-3-15,73.0,53.5,35.6,40.5,34.5,28.2,81,53,27,30.23,29.91,5,0,12,0.00
2013-3-16,78.4,67.1,58.3,43.3,39.0,36.3,47,37,22,29.91,29.79,15,3,114,0.00
2013-3-17,72.5,64.9,57.6,48.9,43.1,39.3,59,46,32,29.93,29.83,8,1,13,0.00
2013-3-18,60.3,56.1,52.5,52.7,49.8,43.0,96,80,55,29.87,29.73,14,2,16,0.59
2013-3-19,63.3,50.1,37.8,51.4,30.2,7.4,96,54,19,30.10,29.85,4,0,11,0.06
2013-3-20,61.2,48.3,39.7,25.1,12.3,2.1,51,25,19,30.12,29.89,7,0,9,0.00
2013-3-21,51.8,37.8,25.5,22.8,4.3,-10.5,51,26,19,30.02,29.90,6,0,10,0.00
2013-3-22,45.9,40.1,34.2,24.3,13.5,-2.9,45,34,19,30.02,29.95,0,0,5,0.00
2013-3-23,52.2,44.4,38.1,41.9,35.2,23.9,83,71,45,29.99,29.74,3,0,7,0.14
2013-3-24,55.6,47.4,40.8,52.5,43.1,28.8,96,86,57,29.81,29.40,12,2,18,1.16
2013-3-25,40.5,35.8,33.1,28.9,22.5,19.7,65,58,52,30.04,29.65,6,0,15,0.10
2013-3-26,39.6,35.0,32.2,26.4,23.4,20.5,72,62,52,30.27,30.03,0,0,6,0.00
2013-3-27,57.7,42.2,31.1,27.0,21.5,7.4,67,47,19,30.33,30.22,0,0,6,0.00
2013-3-28,64.0,47.3,34.0,29.2,24.6,18.3,69,44,19,30.33,30.20,0,0,6,0.00
2013-3-29,55.9,46.2,38.8,38.1,31.7,25.7,75,58,34,30.31,30.18,0,0,6,0.00
2013-3-30,63.0,50.1,42.3,49.8,42.0,38.0,91,75,46,30.19,29.97,0,0,0,0.31
2013-3-31,60.1,55.5,52.5,57.5,53.5,50.3,96,93,75,29.96,29.83,8,0,8,0.75
2013-4-1,68.4,54.8,42.3,54.1,44.7,34.3,96,73,40,30.05,29.87,0,0,5,0.10
2013-4-2,59.0,49.2,39.9,35.4,23.5,14.8,55,38,19,30.21,30.04,0,0,7,0.02
2013-4-3,55.9,50.3,42.3,24.1,15.2,3.9,38,25,19,30.20,30.10,5,0,8,0.00
2013-4-4,52.0,43.2,40.1,41.2,37.5,19.9,96,83,28,30.13,29.94,0,0,4,1.22
2013-4-5,66.4,51.0,40.1,44.5,38.9,32.2,96,69,33,30.06,29.95,6,0,9,0.04
2013-4-6,61.7,47.8,41.9,42.9,37.4,33.0,85,68,47,30.15,30.06,0,0,0,0.02
2013-4-8,70.3,68.3,66.7,48.2,47.3,46.5,51,47,43,30.02,29.99,0,0,10,0.00
2013-4-9,84.4,68.5,55.4,54.9,49.8,46.1,80,53,33,30.15,29.99,8,0,14,0.00
2013-4-10,87.6,72.1,57.9,56.0,51.2,48.9,75,51,29,30.07,29.84,10,0,14,0.00
2013-4-11,79.3,69.8,61.0,60.5,54.7,49.2,96,61,44,29.87,29.61,11,2,22,1.04
2013-4-12,67.6,58.7,50.2,60.0,44.2,36.1,96,62,33,29.92,29.60,6,0,9,1.04
2013-4-13,75.7,60.9,47.3,43.3,36.4,25.3,81,46,19,30.04,29.93,3,0,6,0.00
2013-4-14,61.3,55.7,51.8,51.1,43.6,36.3,88,65,46,30.00,29.90,4,0,10,0.06
2013-4-15,77.7,63.9,53.2,57.4,53.4,50.0,96,72,42,30.06,29.89,0,0,11,0.04
2013-4-16,77.7,68.0,60.4,61.2,57.0,53.0,82,69,52,30.19,30.07,8,0,11,0.00
2013-4-17,87.4,67.9,61.2,64.8,59.8,52.1,96,78,36,30.17,30.03,3,0,14,0.22
2013-4-18,79.2,68.1,57.4,64.5,56.2,50.9,96,71,38,30.03,29.78,8,1,15,0.22
2013-4-19,72.5,56.9,44.8,63.8,47.4,32.2,96,72,51,30.08,29.65,12,2,22,1.00
2013-4-20,65.1,49.5,36.5,36.4,31.0,23.1,85,53,23,30.23,30.08,3,0,8,0.02
2013-4-21,70.3,56.0,45.9,39.2,33.5,24.8,61,45,19,30.33,30.18,6,0,9,0.00
2013-4-22,72.7,59.9,47.7,44.3,38.9,33.9,80,49,26,30.28,30.08,4,0,7,0.00
2013-4-23,74.7,62.7,50.7,44.8,40.7,35.7,64,46,32,30.18,29.99,8,1,10,0.00
2013-4-24,68.7,59.7,48.7,57.9,48.6,37.9,88,67,50,30.20,29.97,7,1,14,0.06
2013-4-25,68.2,53.1,41.0,38.3,32.4,19.3,74,50,19,30.31,30.19,4,0,6,0.02
2013-4-26,73.0,59.0,46.2,47.6,36.2,28.9,78,46,22,30.35,30.21,4,0,6,0.22
2013-4-27,53.8,51.5,49.5,52.1,49.7,47.5,96,94,81,30.33,30.07,0,0,3,1.16
2013-4-28,56.7,54.5,51.4,55.0,47.0,13.4,96,84,19,30.08,29.87,6,0,8,1.26
2013-4-29,72.3,60.7,54.3,60.0,54.7,52.5,96,82,56,30.00,29.89,3,0,5,0.02
2013-4-30,76.5,63.0,50.9,60.1,53.1,49.8,96,74,41,30.04,29.92,3,0,6,0.00
2013-5-1,73.6,64.5,55.2,60.9,55.8,50.8,96,75,57,30.14,30.04,4,0,5,0.00
2013-5-2,72.1,64.1,54.5,58.5,53.3,49.1,92,69,52,30.15,30.05,5,0,7,0.00
2013-5-3,70.0,61.8,56.3,56.7,53.0,50.2,96,74,54,30.08,29.92,6,0,7,0.02
2013-5-4,61.9,53.1,49.6,53.9,50.5,48.0,96,91,61,29.92,29.84,9,0,9,2.73
2013-5-5,58.6,48.8,44.1,52.0,46.3,43.0,96,92,64,29.85,29.72,4,0,57,1.61
2013-5-6,52.2,48.2,43.5,50.0,46.5,42.5,96,94,83,29.87,29.74,0,0,0,0.55
2013-5-7,69.3,54.7,44.2,54.7,47.6,43.2,96,80,49,29.95,29.85,0,0,0,0.31
2013-5-8,70.5,59.3,49.6,57.3,51.5,46.0,96,77,56,30.02,29.92,0,0,0,0.00
2013-5-9,81.1,65.5,53.1,61.6,53.4,50.1,96,70,35,30.07,29.98,0,0,0,0.00
2013-5-10,70.7,64.1,55.8,57.3,53.3,51.5,96,69,54,30.04,29.91,0,0,0,0.00
2013-5-11,72.0,65.3,59.0,59.3,55.0,47.5,87,70,56,29.97,29.85,0,0,0,0.00
2013-5-12,70.3,59.3,52.2,47.0,35.1,22.6,79,44,19,30.11,29.97,3,0,6,0.00
2013-5-13,72.9,57.2,43.9,37.7,32.3,23.6,68,42,19,30.22,30.10,3,0,6,0.00
2013-5-14,81.5,63.4,47.8,49.9,44.3,34.5,78,52,32,30.20,30.02,5,0,14,0.00
2013-5-15,85.8,72.5,59.4,55.8,51.0,47.6,73,49,29,30.13,29.97,6,0,6,0.00
2013-5-16,83.8,71.2,61.2,59.1,53.7,49.3,77,56,39,30.04,29.93,2,0,6,0.00
2013-5-17,76.6,68.3,62.1,61.6,57.0,51.9,86,68,51,30.06,29.97,0,0,5,0.08
2013-5-18,74.1,65.4,58.1,66.9,62.0,47.3,96,89,48,30.03,29.95,6,0,8,0.61
2013-5-19,67.6,62.2,20.8,65.9,52.8,-14.9,100,81,19,30.07,29.90,114,2,114,1.43
2013-5-20,79.7,63.8,53.6,70.4,58.0,15.5,96,84,19,30.08,29.96,4,0,4,0.02
2013-5-21,84.0,65.7,52.9,69.0,57.3,22.5,96,77,19,30.02,29.86,10,0,10,0.00
2013-5-22,80.2,61.5,53.4,62.9,55.8,51.2,96,84,50,29.93,29.82,4,0,10,1.04
2013-5-23,78.4,64.1,53.1,62.9,52.3,16.2,96,71,19,30.00,29.87,5,0,10,0.41
2013-5-24,74.1,62.6,52.7,49.4,45.1,38.3,77,55,32,30.22,30.00,7,0,8,0.00
2013-5-25,78.3,62.7,47.8,48.8,44.2,40.7,76,54,30,30.30,30.13,5,0,5,0.00
2013-5-26,79.9,64.3,50.5,53.4,48.4,44.1,80,59,34,30.24,30.12,3,0,6,0.00
2013-5-27,84.6,67.4,52.3,58.0,52.6,47.0,85,62,35,30.19,30.05,3,0,11,0.00
2013-5-28,86.9,72.7,58.6,58.5,54.5,52.2,80,56,33,30.15,30.04,6,0,114,0.00
2013-5-29,87.4,74.0,64.6,61.7,56.0,51.7,72,55,36,30.18,30.06,4,0,11,0.00
2013-5-30,82.8,73.0,63.7,61.8,58.5,55.9,78,61,46,30.19,30.06,6,0,9,0.00
2013-5-31,84.0,73.6,65.5,63.0,59.5,57.5,78,62,46,30.14,30.01,5,0,12,0.00
2013-6-1,83.1,73.1,63.5,68.1,62.1,58.5,96,69,52,30.04,29.93,13,1,13,0.16
2013-6-2,76.5,67.3,60.4,69.2,56.1,21.6,96,74,19,29.95,29.84,2,0,10,0.35
2013-6-3,77.2,65.9,54.9,61.9,56.5,53.5,96,74,51,29.96,29.87,0,0,5,0.06
2013-6-4,85.3,67.2,53.2,60.1,54.3,48.7,86,66,38,30.01,29.93,5,0,5,0.00
2013-6-5,75.6,62.0,55.9,63.3,57.4,52.8,96,86,64,30.00,29.88,5,0,8,0.88
2013-6-6,76.3,66.5,58.8,64.0,60.4,57.7,100,83,62,29.90,29.72,114,17,114,0.18
2013-6-7,76.8,63.9,57.4,63.9,58.8,55.6,100,84,59,29.84,29.69,114,4,114,0.49
2013-6-8,77.2,69.6,58.6,62.4,59.6,56.3,100,73,54,30.02,29.84,114,20,114,0.06
2013-6-9,77.5,62.7,54.5,65.4,57.4,50.1,92,83,54,30.06,29.92,5,0,11,0.77
2013-6-10,80.1,75.1,67.8,65.4,59.7,56.8,100,61,48,29.96,29.86,114,10,114,0.04
2013-6-11,84.4,70.4,55.2,67.9,60.7,51.1,100,73,52,30.01,29.92,114,2,114,0.18
2013-6-12,91.6,75.0,57.0,69.4,60.7,41.5,79,63,19,30.05,29.93,0,0,6,0.00
2013-6-13,86.7,76.0,68.7,67.8,62.1,57.7,70,62,53,29.93,29.74,6,1,8,0.00
2013-6-14,85.3,71.2,58.1,58.6,53.9,49.7,75,56,35,29.99,29.86,5,0,7,0.00
2013-6-15,86.7,75.7,59.7,60.0,56.4,50.7,72,53,38,30.09,30.00,0,0,9,0.00
2013-6-16,82.4,67.1,41.4,64.9,52.5,2.2,82,62,19,30.10,29.97,0,0,14,0.16
2013-6-17,86.7,65.3,43.2,39.6,22.0,3.7,100,24,19,30.02,29.90,114,6,114,0.18
2013-6-18,83.8,63.4,38.3,60.6,23.7,-0.3,100,26,19,29.92,29.84,114,3,114,0.16
2013-6-19,86.0,61.2,35.1,65.6,28.4,-3.0,100,34,19,30.04,29.92,114,4,114,0.16
2013-6-20,88.9,62.3,34.7,63.2,22.3,-3.3,100,26,19,30.16,30.04,114,4,114,0.04
2013-6-21,86.7,72.0,44.4,39.6,27.5,4.8,100,27,19,30.22,30.11,114,11,114,0.04
2013-6-22,101.7,74.5,40.5,51.7,29.5,1.5,100,22,19,30.20,30.06,114,4,114,0.00
2013-6-23,132.6,81.4,39.7,76.7,35.2,0.9,19,19,19,30.17,30.05,0,0,6,0.00
2013-6-24,149.2,88.1,75.4,89.9,41.9,0.0,100,37,19,30.19,30.05,3,0,114,0.00
2013-6-25,149.5,98.0,87.6,92.8,51.0,0.0,100,78,19,30.13,29.98,3,0,6,0.00
2013-6-26,144.5,110.2,91.9,86.2,59.1,0.0,100,61,19,30.04,29.87,114,2,114,0.00
2013-6-27,125.1,99.7,81.7,70.6,50.1,35.5,100,41,19,29.94,29.79,5,0,14,0.22
2013-6-28,146.3,98.0,70.3,87.7,48.7,26.2,100,50,19,29.83,29.66,114,4,114,0.22
2013-6-29,93.9,77.9,48.2,99.9,56.3,7.9,100,43,19,29.71,29.64,114,13,114,0.10
2013-6-30,90.5,64.1,9.3,99.9,37.8,-24.6,100,24,19,29.79,29.67,6,0,6,0.22
2013-7-1,92.1,78.5,77.4,44.0,32.8,31.9,100,82,19,29.83,29.76,114,2,114,0.37
2013-7-2,57.9,43.0,32.0,15.9,3.6,-5.6,19,19,19,30.02,29.96,0,0,114,0.26
2013-7-3,65.1,60.1,53.4,99.9,37.2,12.2,100,42,19,30.12,30.02,114,32,114,0.00
2013-7-4,65.3,58.0,55.0,55.0,20.6,13.6,100,76,19,30.12,30.03,114,76,114,0.02
2013-7-5,55.9,55.6,55.4,55.9,31.6,13.9,100,100,100,30.15,30.07,114,114,114,0.02
2013-7-6,55.9,55.9,55.9,55.9,55.9,55.9,100,100,100,30.11,30.08,114,114,114,0.00
2013-7-7,55.9,55.9,55.9,55.9,55.9,55.9,100,100,100,30.14,30.07,114,114,114,0.00
2013-7-8,55.9,55.9,55.9,55.9,55.9,55.9,100,100,100,30.18,30.07,114,114,114,0.00
2013-7-9,55.9,55.9,55.9,55.9,55.9,55.9,100,100,100,30.14,30.03,114,114,114,0.00
2013-7-10,55.9,55.9,55.9,55.9,55.9,55.9,100,100,100,30.06,29.94,114,114,114,0.00
2013-7-11,55.9,55.9,55.9,55.9,55.9,55.9,100,100,100,29.97,29.85,114,114,114,0.00
2013-7-12,55.9,55.9,55.9,55.9,55.9,55.9,100,100,100,29.95,29.88,114,114,114,0.00
2013-7-13,55.9,55.9,55.9,55.9,55.9,55.9,100,100,100,30.05,29.93,114,114,114,0.00
2013-7-14,55.9,55.9,55.9,55.9,55.9,55.9,100,100,100,30.16,30.03,114,114,114,0.00
2013-7-15,55.9,55.9,55.9,55.9,55.9,55.9,100,100,100,30.25,30.17,114,114,114,0.00
2013-7-16,84.2,66.8,55.9,75.1,64.5,55.9,100,93,74,30.29,29.96,114,55,114,0.06
2013-7-17,95.4,82.4,70.7,75.0,71.1,68.9,95,72,45,30.00,29.86,0,0,0,0.35
2013-7-18,86.2,85.4,76.1,71.7,70.6,57.8,62,61,53,29.94,29.76,0,0,0,0.00
2013-7-19,76.1,76.1,76.1,57.8,57.8,57.8,53,53,53,29.81,29.81,0,0,0,0.00
2013-7-20,76.1,76.1,76.1,57.8,57.8,57.8,53,53,53,29.81,29.81,0,0,0,0.00
2013-7-26,84.6,77.1,72.1,70.5,67.3,65.6,81,72,57,29.95,29.91,3,0,5,0.00
2013-7-27,87.4,76.1,69.6,71.6,67.3,63.7,90,75,51,29.94,29.83,10,1,11,0.00
2013-7-28,89.2,75.8,68.0,68.9,65.2,60.1,89,70,47,30.02,29.87,8,1,8,0.00
2013-7-29,81.5,58.5,45.5,61.3,51.2,41.6,86,78,43,30.14,30.01,8,1,8,0.00
2013-7-30,45.5,45.5,45.5,41.6,41.6,41.6,86,86,86,30.17,30.07,5,1,5,0.00
2013-8-9,82.9,82.9,82.9,77.6,77.6,77.6,84,84,84,29.86,29.86,0,0,0,0.00
2013-8-14,72.1,69.0,65.5,63.4,60.8,58.4,79,75,73,29.91,29.86,3,0,3,0.00
2013-8-15,77.2,69.2,63.4,70.2,61.6,57.5,85,77,66,29.95,29.88,4,0,4,0.00
2013-8-16,72.6,68.1,63.7,65.2,62.8,59.5,91,83,72,29.97,29.91,5,0,5,0.00
2013-8-17,72.6,67.9,65.5,67.2,64.8,62.6,97,90,78,30.00,29.94,3,0,3,0.02
2013-8-18,75.3,69.1,65.4,71.4,67.5,64.6,99,95,80,30.05,29.97,6,0,6,0.37
2013-8-19,78.3,71.0,67.7,73.2,69.4,67.4,99,95,80,30.02,29.91,3,0,3,0.78
2013-8-20,83.8,74.9,68.3,75.8,71.5,67.7,99,90,71,30.04,29.94,4,0,4,0.00
2013-8-21,79.3,73.5,70.3,74.2,71.8,69.7,99,95,81,30.07,29.98,6,0,6,0.63
2013-8-22,85.3,74.3,70.8,77.1,72.4,70.1,99,94,70,30.04,29.91,8,0,8,0.11
2013-8-23,87.7,75.5,68.9,76.4,71.2,68.0,100,88,56,29.96,29.85,4,0,4,0.01
2013-8-24,85.0,74.1,67.1,74.4,69.8,66.5,99,88,66,30.10,29.93,8,0,8,0.11
2013-8-25,84.1,73.8,64.6,70.4,66.3,62.5,98,79,52,30.23,30.10,5,0,5,0.00
2013-8-26,84.3,72.6,62.6,68.8,64.8,61.1,98,78,51,30.19,30.01,4,0,4,0.00
2013-8-27,87.7,74.2,64.8,72.2,67.7,63.6,97,82,53,30.04,29.91,4,0,4,0.00
2013-8-28,88.0,76.7,68.3,76.4,71.7,67.7,99,86,60,29.94,29.85,4,0,4,0.00
2013-8-29,90.6,79.2,70.1,78.1,73.4,69.2,99,83,59,29.90,29.80,2,0,2,0.00
2013-8-30,87.4,76.5,72.3,78.7,74.1,71.7,99,92,69,29.87,29.78,5,0,5,0.64
2013-8-31,90.8,77.5,71.6,79.0,73.7,70.8,99,89,58,29.83,29.70,6,0,6,0.04
2013-9-1,86.5,74.7,71.3,78.2,72.8,63.0,99,94,55,29.80,29.71,7,0,7,0.22
2013-9-2,83.2,75.9,71.5,75.8,72.2,70.4,99,89,69,29.83,29.71,5,0,5,0.04
2013-9-3,87.6,78.2,70.3,76.3,70.6,64.2,98,79,50,29.87,29.73,5,0,5,0.00
2013-9-4,86.3,73.2,63.5,69.6,65.5,62.3,97,78,48,29.99,29.86,4,0,4,0.00
2013-9-5,83.7,71.8,63.4,69.6,64.4,59.0,96,79,49,30.03,29.95,6,0,6,0.00
2013-9-6,86.7,73.2,63.9,70.5,66.1,62.0,96,80,49,30.04,29.92,4,0,4,0.00
2013-9-7,87.5,74.7,65.1,72.4,68.6,64.5,99,83,54,30.00,29.86,8,0,8,0.00
2013-9-8,88.8,76.5,67.4,74.5,70.7,66.6,99,84,56,29.89,29.80,3,0,3,0.00
2013-9-9,88.7,77.6,71.1,76.9,72.5,69.9,98,86,56,29.97,29.86,7,0,7,0.00
2013-9-10,88.6,78.0,69.6,74.4,70.7,66.9,99,80,50,30.08,29.97,5,0,5,0.00
2013-9-11,88.5,77.2,69.6,74.2,70.1,62.9,99,81,46,30.09,29.96,2,0,2,0.00
2013-9-12,88.9,77.2,69.7,74.5,70.8,67.1,97,82,53,29.97,29.77,7,0,7,0.00
2013-9-13,82.4,72.7,63.4,67.9,61.2,52.1,96,70,41,29.84,29.75,6,0,6,0.00
2013-9-14,77.5,63.8,56.1,59.9,53.4,50.0,93,70,49,29.94,29.83,7,1,7,0.00
2013-9-15,82.6,68.1,57.4,68.3,61.3,56.0,96,81,51,30.04,29.94,2,0,8,0.00
2013-9-16,83.3,71.9,62.8,67.2,63.7,60.5,99,78,48,30.03,29.96,2,0,4,0.00
2013-9-17,80.9,72.5,66.2,66.8,63.5,59.7,86,74,60,30.08,29.98,5,1,10,0.00
2013-9-18,78.6,70.6,65.3,64.9,61.3,59.2,89,73,59,30.09,29.98,5,1,8,0.00
2013-9-19,83.3,70.2,61.1,68.2,63.7,59.8,96,81,58,30.06,29.91,1,0,5,0.00
2013-9-20,85.3,74.1,64.1,68.5,65.3,62.6,98,77,47,29.94,29.74,5,0,6,0.00
2013-9-21,74.9,67.8,59.7,69.1,65.3,58.3,98,92,76,29.75,29.61,5,0,9,1.85
2013-9-22,97.0,65.0,53.6,61.0,56.1,52.8,97,76,30,29.78,29.70,3,0,6,0.03
2013-9-23,78.9,66.6,56.3,63.7,58.7,54.6,94,77,53,29.89,29.78,3,0,5,0.00
2013-9-24,70.4,65.8,61.4,64.9,62.6,59.4,98,90,79,29.90,29.77,2,0,6,0.00
2013-9-25,67.6,66.0,64.6,66.5,64.7,63.4,98,96,90,29.76,29.70,2,0,3,0.73
2013-9-26,78.1,68.3,63.6,67.8,63.8,61.3,98,87,61,29.88,29.75,2,0,4,0.00
2013-9-27,77.9,67.2,58.2,64.7,61.2,57.6,99,83,51,30.02,29.89,1,0,3,0.00
2013-9-28,76.3,67.0,59.2,63.0,60.2,58.3,98,81,57,30.09,29.96,2,0,6,0.00
2013-9-29,74.7,65.3,57.4,62.1,58.1,54.8,95,79,57,30.02,29.89,7,0,7,0.01
2013-9-30,74.6,64.7,57.5,61.7,58.9,56.4,98,83,54,29.96,29.86,2,0,6,0.00
2013-10-1,78.8,67.4,59.1,67.2,62.5,58.1,98,85,62,30.03,29.92,1,0,2,0.00
2013-10-2,81.8,70.7,63.2,69.3,65.9,62.6,99,86,61,30.04,29.92,0,0,1,0.00
2013-10-3,82.8,72.5,65.4,70.1,66.0,62.9,98,82,53,30.00,29.91,1,0,7,0.00
2013-10-4,80.4,69.8,62.5,70.2,65.8,61.9,99,88,67,30.03,29.94,0,0,2,0.00
2013-10-5,84.6,72.6,65.4,70.1,66.8,64.9,99,84,53,29.99,29.86,3,0,6,0.00
2013-10-6,81.4,70.2,64.4,69.2,66.1,62.5,97,87,65,29.87,29.68,4,0,11,0.00
2013-10-7,69.0,60.7,55.2,56.1,52.5,49.6,96,76,52,29.93,29.77,4,1,7,0.04
2013-10-8,72.5,62.1,55.3,58.8,52.0,47.2,89,70,53,30.01,29.92,5,1,11,0.00
2013-10-9,60.0,59.0,58.0,57.4,57.1,56.9,97,94,91,30.01,30.00,0,0,0,0.00
2013-10-13,79.9,72.1,62.9,62.1,59.7,57.8,93,67,48,30.09,30.01,4,1,7,0.00
2013-10-14,79.0,68.4,58.7,65.1,61.5,57.8,98,80,58,30.09,29.96,2,0,4,0.00
2013-10-15,70.3,66.3,61.7,61.9,60.0,58.7,93,81,68,30.02,29.91,7,1,8,0.00
2013-10-16,70.9,64.0,59.4,62.6,60.0,57.5,96,87,72,29.93,29.82,2,0,9,0.02
2013-10-17,73.3,64.0,53.1,66.8,60.9,51.1,98,90,73,29.88,29.75,2,0,6,0.18
2013-10-18,65.8,55.8,48.2,53.2,49.6,47.4,97,81,54,29.95,29.84,2,0,7,0.00
2013-10-19,65.8,56.2,49.9,55.4,49.9,44.6,86,80,69,29.91,29.82,2,0,6,0.00
2013-10-20,63.1,50.6,39.5,46.5,42.2,38.4,97,76,41,29.99,29.91,3,0,7,0.00
2013-10-21,68.5,59.2,45.7,51.8,48.2,44.8,98,69,46,30.02,29.88,3,0,4,0.00
2013-10-22,66.5,58.9,53.0,53.9,51.6,48.1,93,78,61,29.91,29.74,2,0,3,0.00
2013-10-23,55.5,50.2,39.5,50.7,41.5,34.8,92,74,49,29.98,29.72,3,0,13,0.00
2013-10-24,60.1,47.3,38.7,43.9,39.4,36.3,94,76,51,30.16,30.00,6,0,6,0.00
2013-10-25,50.7,41.5,33.5,34.2,30.0,26.4,83,65,43,30.35,30.18,4,1,8,0.00
2013-10-26,59.3,44.4,30.3,36.2,33.1,29.0,97,68,41,30.25,30.03,4,0,8,0.00
2013-10-27,62.3,54.7,48.9,52.6,45.6,36.7,88,71,60,30.04,29.97,2,0,8,0.00
2013-10-28,60.0,55.7,50.4,57.1,53.8,49.6,98,93,86,30.15,30.00,2,0,3,0.00
2013-10-29,69.5,59.8,54.7,61.0,56.9,54.2,99,91,70,30.21,30.09,1,0,3,0.00
2013-10-30,78.3,64.8,56.1,61.7,57.7,55.5,98,80,48,30.16,30.00,3,0,6,0.00
2013-10-31,72.4,65.3,60.5,64.7,59.9,55.6,92,83,74,30.01,29.61,5,1,13,0.04
2013-11-1,70.9,63.6,51.8,65.4,55.2,47.5,96,76,49,29.71,29.57,5,1,12,0.47
2013-11-2,66.1,54.2,45.7,50.2,44.7,39.0,98,73,40,29.99,29.70,4,0,7,0.00
2013-11-3,59.1,49.6,42.4,42.8,40.4,38.4,89,72,48,30.18,29.99,3,0,6,0.00
2013-11-4,64.3,50.9,40.3,44.7,40.3,38.0,97,71,40,30.30,30.18,6,0,17,0.00
2013-11-5,63.6,53.4,44.6,47.1,41.1,37.5,80,64,46,30.33,30.19,4,0,5,0.00
2013-11-6,72.3,60.2,49.9,58.8,52.8,41.6,95,77,62,30.19,29.95,7,1,14,0.01
2013-11-7,63.4,52.9,42.2,59.5,44.1,31.7,98,74,42,30.17,29.90,5,1,7,0.48
2013-11-8,56.6,45.2,36.5,35.9,29.0,23.0,84,56,28,30.29,30.16,7,1,8,0.00
2013-11-9,55.5,44.8,33.7,37.6,35.0,32.0,96,71,44,30.23,30.13,5,0,9,0.00
2013-11-10,68.8,54.3,43.3,45.3,39.3,31.0,94,60,27,30.21,30.11,3,0,6,0.00
2013-11-11,66.8,51.5,40.1,41.5,32.2,26.4,69,49,25,30.21,30.04,2,0,6,0.00
2013-11-12,53.3,44.5,31.2,42.9,29.3,14.4,76,56,42,30.43,30.03,9,2,14,0.00
2013-11-13,45.9,35.4,27.8,26.6,19.6,16.9,80,54,34,30.55,30.37,6,1,10,0.00
2013-11-14,57.6,39.1,26.7,32.8,25.9,19.1,97,66,25,30.40,30.19,2,0,3,0.00
2013-11-15,48.8,42.5,36.7,42.7,37.6,27.5,96,84,54,30.18,30.03,1,0,4,0.25
2013-11-16,57.0,49.1,43.7,55.0,47.9,42.6,98,96,93,30.11,30.00,2,0,3,0.00
2013-11-17,66.9,61.9,58.1,66.0,60.1,55.8,98,94,86,29.99,29.74,6,1,10,0.64
2013-11-18,67.4,59.2,48.0,66.2,42.7,33.5,96,57,33,30.03,29.75,4,1,12,0.14
2013-11-19,53.0,46.3,40.7,32.7,28.9,25.6,62,51,36,30.11,30.02,11,2,11,0.00
2013-11-20,60.4,47.1,33.5,37.1,33.4,30.9,94,62,37,30.20,30.06,2,0,7,0.00
2013-11-21,62.6,53.6,49.3,51.6,42.9,34.3,84,67,55,30.24,30.14,4,0,6,0.00
2013-11-22,57.8,55.0,52.0,56.3,53.5,50.9,98,95,86,30.20,30.08,5,0,6,0.14
2013-11-23,53.1,46.7,35.0,51.4,38.8,21.1,94,75,51,30.28,30.09,3,1,7,0.00
2013-11-24,38.1,30.7,23.6,21.7,14.1,7.7,67,51,32,30.45,30.28,5,1,13,0.00
2013-11-25,42.8,34.3,27.7,32.5,19.1,10.6,94,56,27,30.38,30.11,2,0,6,0.35
2013-11-26,43.0,37.1,32.8,42.1,35.9,31.5,98,96,89,30.11,29.66,6,1,10,2.71
2013-11-27,37.6,32.3,24.7,34.9,24.6,17.1,90,73,54,30.21,29.73,4,1,13,0.00
2013-11-28,45.8,30.9,21.1,28.7,20.7,15.2,87,67,40,30.38,30.22,4,0,5,0.00
2013-11-29,51.2,37.3,27.4,30.9,27.9,25.9,98,72,39,30.47,30.37,3,0,7,0.00
2013-11-30,55.4,42.3,29.5,32.0,28.9,26.6,97,63,34,30.43,30.21,3,1,9,0.00
2013-12-1,55.3,44.2,32.6,38.1,32.2,25.9,79,63,49,30.21,29.90,4,0,7,0.00
2013-12-2,48.3,46.5,43.7,47.8,44.4,38.2,98,93,68,29.90,29.70,3,0,3,0.17
2013-12-3,52.5,50.2,48.1,52.0,49.8,47.6,99,98,98,29.76,29.71,0,0,2,0.02
2013-12-4,72.1,60.5,52.0,62.6,57.3,51.7,99,90,68,29.85,29.74,11,2,14,0.01
2013-12-5,73.4,67.8,63.8,67.0,64.9,61.7,95,90,80,29.89,29.78,6,2,13,0.00
2013-12-6,68.8,53.2,38.7,67.0,51.9,37.4,97,95,92,30.06,29.74,4,1,9,1.78
2013-12-7,40.2,37.9,35.9,38.0,34.9,33.3,95,89,83,30.29,30.07,4,1,15,0.00
2013-12-8,46.6,40.4,35.3,46.2,39.6,34.2,99,97,92,30.23,29.99,3,1,7,1.17
2013-12-9,54.1,46.3,40.2,49.7,44.6,38.5,98,94,85,30.05,29.94,4,0,7,0.45
2013-12-10,42.7,37.0,29.1,39.6,32.4,26.5,97,84,61,30.27,29.90,5,0,6,0.39
2013-12-11,49.6,35.9,25.4,30.0,27.2,24.4,97,73,44,30.38,30.25,2,0,5,0.00
2013-12-12,42.7,33.2,25.3,26.6,21.2,17.3,80,63,36,30.44,30.31,4,1,7,0.00
2013-12-13,42.7,34.3,24.4,30.2,25.3,19.7,94,71,47,30.33,30.08,1,0,2,0.00
2013-12-15,36.4,34.4,31.9,30.8,29.6,28.0,89,82,77,30.13,29.99,1,0,6,0.00
2013-12-16,53.3,39.8,29.7,37.9,31.6,27.9,93,74,50,30.17,30.04,6,1,8,0.00
2013-12-17,59.1,48.5,40.8,39.6,34.3,29.3,71,58,46,30.14,29.94,5,2,9,0.00
2013-12-18,51.4,39.4,29.4,29.1,25.2,20.9,84,59,30,30.26,30.14,2,0,6,0.00
2013-12-19,61.0,42.1,31.0,35.0,29.4,23.7,95,65,27,30.22,30.04,5,0,7,0.00
2013-12-20,62.3,53.3,42.9,52.5,40.2,28.5,79,62,48,30.07,29.95,5,1,12,0.00
2013-12-21,68.3,60.8,55.1,65.9,58.1,52.2,99,91,80,29.94,29.69,14,2,16,0.16
2013-12-22,69.5,58.4,54.8,66.2,56.8,53.9,97,94,88,29.93,29.67,12,2,19,1.84
2013-12-23,54.5,42.7,31.5,53.7,38.6,27.2,98,86,76,30.25,29.92,5,1,12,0.02
2013-12-24,37.2,30.9,26.9,26.9,21.5,14.9,86,69,43,30.40,30.25,5,0,7,0.00
2013-12-25,46.8,32.7,22.1,27.2,21.5,16.8,84,65,43,30.38,30.23,3,0,4,0.00
2013-12-26,50.0,38.9,29.2,32.9,28.1,22.7,90,66,48,30.30,30.20,4,0,5,0.00
2013-12-27,53.1,38.2,29.2,32.6,26.8,18.8,94,68,27,30.37,30.25,2,0,3,0.00
2013-12-28,40.1,35.5,30.8,36.8,33.1,29.2,97,91,77,30.29,29.88,2,0,3,0.88
2013-12-29,47.7,42.0,37.7,43.6,40.4,36.9,98,94,84,29.95,29.78,5,0,5,0.50
2013-12-30,41.9,38.5,36.4,41.1,34.7,31.5,97,86,75,30.14,29.94,2,0,4,0.00
2013-12-31,41.5,34.3,29.2,32.7,28.4,26.4,94,80,57,30.36,30.12,3,0,7,0.00
2014-1-1,50.6,36.3,27.8,34.4,30.7,26.8,98,82,50,30.26,30.00,2,0,6,0.00
2014-1-2,46.1,37.2,22.3,44.7,33.3,15.6,98,86,74,30.12,29.70,6,2,11,0.32